sensor_id;sensor_type;location;lat;lon;timestamp;P1;durP1;ratioP1;P2;durP2;ratioP2
50225;SDS011;36113;50.742;6.432;2024-02-28T00:01:36;41.40;;;22.10;;
50225;SDS011;36113;50.742;6.432;2024-02-28T00:04:02;40.60;;;21.23;;
50225;SDS011;36113;50.742;6.432;2024-02-28T00:06:27;38.05;;;20.63;;
50225;SDS011;36113;50.742;6.432;2024-02-28T00:08:52;37.22;;;19.52;;
50225;SDS011;36113;50.742;6.432;2024-02-28T00:11:19;35.45;;;20.63;;
50225;SDS011;36113;50.742;6.432;2024-02-28T00:13:45;34.17;;;19.35;;
50225;SDS011;36113;50.742;6.432;2024-02-28T00:16:10;39.10;;;21.50;;
50225;SDS011;36113;50.742;6.432;2024-02-28T00:18:36;39.58;;;20.73;;
50225;SDS011;36113;50.742;6.432;2024-02-28T00:21:02;41.13;;;22.17;;
50225;SDS011;36113;50.742;6.432;2024-02-28T00:23:28;40.22;;;23.52;;
50225;SDS011;36113;50.742;6.432;2024-02-28T00:25:54;40.20;;;23.20;;
50225;SDS011;36113;50.742;6.432;2024-02-28T00:28:19;45.97;;;23.20;;
50225;SDS011;36113;50.742;6.432;2024-02-28T00:30:44;40.92;;;22.65;;
50225;SDS011;36113;50.742;6.432;2024-02-28T00:33:10;48.38;;;25.25;;
50225;SDS011;36113;50.742;6.432;2024-02-28T00:35:35;46.20;;;25.35;;
50225;SDS011;36113;50.742;6.432;2024-02-28T00:38:00;48.60;;;25.58;;
50225;SDS011;36113;50.742;6.432;2024-02-28T00:40:26;50.65;;;25.88;;
50225;SDS011;36113;50.742;6.432;2024-02-28T00:42:52;45.50;;;24.90;;
50225;SDS011;36113;50.742;6.432;2024-02-28T00:45:17;42.33;;;25.13;;
50225;SDS011;36113;50.742;6.432;2024-02-28T00:47:42;50.45;;;24.63;;
50225;SDS011;36113;50.742;6.432;2024-02-28T00:50:08;45.80;;;24.35;;
50225;SDS011;36113;50.742;6.432;2024-02-28T00:52:34;48.38;;;24.40;;
50225;SDS011;36113;50.742;6.432;2024-02-28T00:54:59;43.65;;;22.83;;
50225;SDS011;36113;50.742;6.432;2024-02-28T00:57:25;46.85;;;24.30;;
50225;SDS011;36113;50.742;6.432;2024-02-28T00:59:50;48.53;;;24.27;;
50225;SDS011;36113;50.742;6.432;2024-02-28T01:02:15;44.88;;;24.05;;
50225;SDS011;36113;50.742;6.432;2024-02-28T01:04:41;46.60;;;25.05;;
50225;SDS011;36113;50.742;6.432;2024-02-28T01:07:07;45.83;;;24.30;;
50225;SDS011;36113;50.742;6.432;2024-02-28T01:09:32;48.60;;;23.98;;
50225;SDS011;36113;50.742;6.432;2024-02-28T01:11:58;46.05;;;25.00;;
50225;SDS011;36113;50.742;6.432;2024-02-28T01:14:23;48.25;;;24.08;;
50225;SDS011;36113;50.742;6.432;2024-02-28T01:16:49;44.17;;;23.08;;
50225;SDS011;36113;50.742;6.432;2024-02-28T01:19:15;47.45;;;25.10;;
50225;SDS011;36113;50.742;6.432;2024-02-28T01:21:41;45.97;;;24.50;;
50225;SDS011;36113;50.742;6.432;2024-02-28T01:24:06;51.10;;;25.25;;
50225;SDS011;36113;50.742;6.432;2024-02-28T01:26:32;45.13;;;24.17;;
50225;SDS011;36113;50.742;6.432;2024-02-28T01:28:57;48.17;;;25.27;;
50225;SDS011;36113;50.742;6.432;2024-02-28T01:31:22;47.95;;;24.13;;
50225;SDS011;36113;50.742;6.432;2024-02-28T01:33:48;48.30;;;25.05;;
50225;SDS011;36113;50.742;6.432;2024-02-28T01:36:13;43.88;;;22.77;;
50225;SDS011;36113;50.742;6.432;2024-02-28T01:38:38;44.63;;;24.00;;
50225;SDS011;36113;50.742;6.432;2024-02-28T01:41:04;48.22;;;22.67;;
50225;SDS011;36113;50.742;6.432;2024-02-28T01:43:30;45.43;;;23.40;;
50225;SDS011;36113;50.742;6.432;2024-02-28T01:45:55;43.65;;;23.00;;
50225;SDS011;36113;50.742;6.432;2024-02-28T01:48:21;40.55;;;22.00;;
50225;SDS011;36113;50.742;6.432;2024-02-28T01:50:46;44.78;;;22.88;;
50225;SDS011;36113;50.742;6.432;2024-02-28T01:53:12;47.47;;;23.33;;
50225;SDS011;36113;50.742;6.432;2024-02-28T01:55:39;42.97;;;23.37;;
50225;SDS011;36113;50.742;6.432;2024-02-28T01:58:05;38.40;;;22.95;;
50225;SDS011;36113;50.742;6.432;2024-02-28T02:00:32;42.22;;;22.17;;
50225;SDS011;36113;50.742;6.432;2024-02-28T02:03:01;38.22;;;21.70;;
50225;SDS011;36113;50.742;6.432;2024-02-28T02:05:26;37.30;;;21.30;;
50225;SDS011;36113;50.742;6.432;2024-02-28T02:07:52;39.80;;;22.33;;
50225;SDS011;36113;50.742;6.432;2024-02-28T02:10:18;41.70;;;21.75;;
50225;SDS011;36113;50.742;6.432;2024-02-28T02:12:43;38.92;;;22.35;;
50225;SDS011;36113;50.742;6.432;2024-02-28T02:15:09;44.20;;;24.17;;
50225;SDS011;36113;50.742;6.432;2024-02-28T02:17:35;47.00;;;25.65;;
50225;SDS011;36113;50.742;6.432;2024-02-28T02:20:00;54.53;;;27.80;;
50225;SDS011;36113;50.742;6.432;2024-02-28T02:22:27;50.05;;;25.90;;
50225;SDS011;36113;50.742;6.432;2024-02-28T02:24:54;53.33;;;27.67;;
50225;SDS011;36113;50.742;6.432;2024-02-28T02:27:20;48.15;;;25.58;;
50225;SDS011;36113;50.742;6.432;2024-02-28T02:29:45;48.45;;;24.63;;
50225;SDS011;36113;50.742;6.432;2024-02-28T02:32:11;53.80;;;25.95;;
50225;SDS011;36113;50.742;6.432;2024-02-28T02:34:36;46.53;;;25.63;;
50225;SDS011;36113;50.742;6.432;2024-02-28T02:37:01;43.65;;;24.75;;
50225;SDS011;36113;50.742;6.432;2024-02-28T02:39:26;49.33;;;24.88;;
50225;SDS011;36113;50.742;6.432;2024-02-28T02:41:52;46.65;;;25.30;;
50225;SDS011;36113;50.742;6.432;2024-02-28T02:44:17;45.03;;;23.25;;
50225;SDS011;36113;50.742;6.432;2024-02-28T02:46:43;45.88;;;23.80;;
50225;SDS011;36113;50.742;6.432;2024-02-28T02:49:08;45.17;;;23.95;;
50225;SDS011;36113;50.742;6.432;2024-02-28T02:51:33;43.10;;;22.40;;
50225;SDS011;36113;50.742;6.432;2024-02-28T02:53:59;42.08;;;23.08;;
50225;SDS011;36113;50.742;6.432;2024-02-28T02:56:24;45.97;;;22.80;;
50225;SDS011;36113;50.742;6.432;2024-02-28T02:58:49;45.25;;;22.63;;
50225;SDS011;36113;50.742;6.432;2024-02-28T03:01:15;42.97;;;22.80;;
50225;SDS011;36113;50.742;6.432;2024-02-28T03:03:40;42.47;;;22.05;;
50225;SDS011;36113;50.742;6.432;2024-02-28T03:06:05;42.83;;;22.67;;
50225;SDS011;36113;50.742;6.432;2024-02-28T03:08:31;44.40;;;23.25;;
50225;SDS011;36113;50.742;6.432;2024-02-28T03:10:56;39.78;;;20.90;;
50225;SDS011;36113;50.742;6.432;2024-02-28T03:13:21;43.10;;;24.10;;
50225;SDS011;36113;50.742;6.432;2024-02-28T03:15:47;46.25;;;24.48;;
50225;SDS011;36113;50.742;6.432;2024-02-28T03:18:13;44.10;;;22.92;;
50225;SDS011;36113;50.742;6.432;2024-02-28T03:20:38;40.35;;;22.45;;
50225;SDS011;36113;50.742;6.432;2024-02-28T03:23:04;45.28;;;21.58;;
50225;SDS011;36113;50.742;6.432;2024-02-28T03:25:31;41.40;;;21.95;;
50225;SDS011;36113;50.742;6.432;2024-02-28T03:27:57;48.35;;;21.98;;
50225;SDS011;36113;50.742;6.432;2024-02-28T03:30:23;41.58;;;21.08;;
50225;SDS011;36113;50.742;6.432;2024-02-28T03:32:48;39.22;;;20.50;;
50225;SDS011;36113;50.742;6.432;2024-02-28T03:35:13;40.78;;;21.75;;
50225;SDS011;36113;50.742;6.432;2024-02-28T03:37:39;39.28;;;19.95;;
50225;SDS011;36113;50.742;6.432;2024-02-28T03:40:04;33.80;;;18.92;;
50225;SDS011;36113;50.742;6.432;2024-02-28T03:42:30;33.10;;;19.38;;
50225;SDS011;36113;50.742;6.432;2024-02-28T03:44:55;33.58;;;17.10;;
50225;SDS011;36113;50.742;6.432;2024-02-28T03:47:20;30.05;;;17.98;;
50225;SDS011;36113;50.742;6.432;2024-02-28T03:49:46;31.88;;;16.85;;
50225;SDS011;36113;50.742;6.432;2024-02-28T03:52:11;32.47;;;16.85;;
50225;SDS011;36113;50.742;6.432;2024-02-28T03:54:36;30.20;;;16.27;;
50225;SDS011;36113;50.742;6.432;2024-02-28T03:57:02;31.33;;;16.73;;
50225;SDS011;36113;50.742;6.432;2024-02-28T03:59:27;30.77;;;17.15;;
50225;SDS011;36113;50.742;6.432;2024-02-28T04:01:52;27.58;;;15.25;;
50225;SDS011;36113;50.742;6.432;2024-02-28T04:04:18;27.70;;;14.27;;
50225;SDS011;36113;50.742;6.432;2024-02-28T04:06:43;29.08;;;13.95;;
50225;SDS011;36113;50.742;6.432;2024-02-28T04:09:08;25.45;;;13.38;;
50225;SDS011;36113;50.742;6.432;2024-02-28T04:11:33;22.75;;;12.48;;
50225;SDS011;36113;50.742;6.432;2024-02-28T04:13:59;20.77;;;11.27;;
50225;SDS011;36113;50.742;6.432;2024-02-28T04:16:24;16.75;;;10.65;;
50225;SDS011;36113;50.742;6.432;2024-02-28T04:18:49;20.58;;;11.95;;
50225;SDS011;36113;50.742;6.432;2024-02-28T04:21:15;26.10;;;13.20;;
50225;SDS011;36113;50.742;6.432;2024-02-28T04:23:40;26.15;;;11.55;;
50225;SDS011;36113;50.742;6.432;2024-02-28T04:26:06;21.30;;;10.55;;
50225;SDS011;36113;50.742;6.432;2024-02-28T04:28:32;23.55;;;12.10;;
50225;SDS011;36113;50.742;6.432;2024-02-28T04:30:57;26.15;;;13.15;;
50225;SDS011;36113;50.742;6.432;2024-02-28T04:33:22;21.98;;;13.00;;
50225;SDS011;36113;50.742;6.432;2024-02-28T04:35:48;21.73;;;11.93;;
50225;SDS011;36113;50.742;6.432;2024-02-28T04:38:13;21.02;;;10.88;;
50225;SDS011;36113;50.742;6.432;2024-02-28T04:40:39;25.27;;;13.13;;
50225;SDS011;36113;50.742;6.432;2024-02-28T04:43:04;24.42;;;13.77;;
50225;SDS011;36113;50.742;6.432;2024-02-28T04:45:29;25.08;;;13.55;;
50225;SDS011;36113;50.742;6.432;2024-02-28T04:47:55;31.70;;;17.13;;
50225;SDS011;36113;50.742;6.432;2024-02-28T04:50:21;35.25;;;18.35;;
50225;SDS011;36113;50.742;6.432;2024-02-28T04:52:47;30.42;;;17.35;;
50225;SDS011;36113;50.742;6.432;2024-02-28T04:55:12;36.90;;;18.42;;
50225;SDS011;36113;50.742;6.432;2024-02-28T04:57:38;30.70;;;17.85;;
50225;SDS011;36113;50.742;6.432;2024-02-28T05:00:03;33.30;;;16.80;;
50225;SDS011;36113;50.742;6.432;2024-02-28T05:02:29;27.52;;;15.52;;
50225;SDS011;36113;50.742;6.432;2024-02-28T05:04:54;29.70;;;15.68;;
50225;SDS011;36113;50.742;6.432;2024-02-28T05:07:20;30.77;;;16.65;;
50225;SDS011;36113;50.742;6.432;2024-02-28T05:09:45;38.72;;;19.45;;
50225;SDS011;36113;50.742;6.432;2024-02-28T05:12:10;36.55;;;18.02;;
50225;SDS011;36113;50.742;6.432;2024-02-28T05:14:37;34.67;;;18.05;;
50225;SDS011;36113;50.742;6.432;2024-02-28T05:17:02;37.13;;;18.90;;
50225;SDS011;36113;50.742;6.432;2024-02-28T05:19:28;36.10;;;18.77;;
50225;SDS011;36113;50.742;6.432;2024-02-28T05:21:53;36.85;;;18.95;;
50225;SDS011;36113;50.742;6.432;2024-02-28T05:24:18;31.17;;;17.08;;
50225;SDS011;36113;50.742;6.432;2024-02-28T05:26:43;33.97;;;16.63;;
50225;SDS011;36113;50.742;6.432;2024-02-28T05:29:09;30.90;;;16.35;;
50225;SDS011;36113;50.742;6.432;2024-02-28T05:31:34;33.42;;;16.38;;
50225;SDS011;36113;50.742;6.432;2024-02-28T05:34:00;41.13;;;17.90;;
50225;SDS011;36113;50.742;6.432;2024-02-28T05:36:27;34.85;;;18.05;;
50225;SDS011;36113;50.742;6.432;2024-02-28T05:38:53;37.92;;;17.92;;
50225;SDS011;36113;50.742;6.432;2024-02-28T05:41:20;36.38;;;17.10;;
50225;SDS011;36113;50.742;6.432;2024-02-28T05:43:46;31.58;;;16.58;;
50225;SDS011;36113;50.742;6.432;2024-02-28T05:46:12;34.33;;;17.55;;
50225;SDS011;36113;50.742;6.432;2024-02-28T05:48:40;30.63;;;17.33;;
50225;SDS011;36113;50.742;6.432;2024-02-28T05:51:06;33.30;;;16.83;;
50225;SDS011;36113;50.742;6.432;2024-02-28T05:53:31;38.17;;;18.17;;
50225;SDS011;36113;50.742;6.432;2024-02-28T05:56:03;36.92;;;17.85;;
50225;SDS011;36113;50.742;6.432;2024-02-28T05:58:29;44.77;;;19.43;;
50225;SDS011;36113;50.742;6.432;2024-02-28T06:00:54;45.55;;;19.33;;
50225;SDS011;36113;50.742;6.432;2024-02-28T06:03:20;41.90;;;20.27;;
50225;SDS011;36113;50.742;6.432;2024-02-28T06:05:46;50.50;;;21.40;;
50225;SDS011;36113;50.742;6.432;2024-02-28T06:08:12;57.13;;;21.63;;
50225;SDS011;36113;50.742;6.432;2024-02-28T06:10:37;43.13;;;20.80;;
50225;SDS011;36113;50.742;6.432;2024-02-28T06:13:02;44.00;;;20.63;;
50225;SDS011;36113;50.742;6.432;2024-02-28T06:15:28;42.20;;;21.50;;
50225;SDS011;36113;50.742;6.432;2024-02-28T06:17:56;44.38;;;20.52;;
50225;SDS011;36113;50.742;6.432;2024-02-28T06:20:25;34.70;;;17.92;;
50225;SDS011;36113;50.742;6.432;2024-02-28T06:22:51;42.10;;;19.85;;
50225;SDS011;36113;50.742;6.432;2024-02-28T06:25:16;42.00;;;20.55;;
50225;SDS011;36113;50.742;6.432;2024-02-28T06:27:47;40.53;;;18.58;;
50225;SDS011;36113;50.742;6.432;2024-02-28T06:30:12;39.50;;;19.80;;
50225;SDS011;36113;50.742;6.432;2024-02-28T06:32:38;43.70;;;20.45;;
50225;SDS011;36113;50.742;6.432;2024-02-28T06:35:03;38.58;;;19.58;;
50225;SDS011;36113;50.742;6.432;2024-02-28T06:37:29;36.53;;;19.57;;
50225;SDS011;36113;50.742;6.432;2024-02-28T06:39:55;36.15;;;17.52;;
50225;SDS011;36113;50.742;6.432;2024-02-28T06:42:20;37.70;;;17.20;;
50225;SDS011;36113;50.742;6.432;2024-02-28T06:44:45;35.88;;;17.90;;
50225;SDS011;36113;50.742;6.432;2024-02-28T06:47:11;32.55;;;17.63;;
50225;SDS011;36113;50.742;6.432;2024-02-28T06:49:36;32.38;;;17.17;;
50225;SDS011;36113;50.742;6.432;2024-02-28T06:52:01;35.85;;;18.25;;
50225;SDS011;36113;50.742;6.432;2024-02-28T06:54:27;40.42;;;17.85;;
50225;SDS011;36113;50.742;6.432;2024-02-28T06:56:53;35.85;;;18.70;;
50225;SDS011;36113;50.742;6.432;2024-02-28T06:59:18;40.83;;;18.92;;
50225;SDS011;36113;50.742;6.432;2024-02-28T07:01:44;36.20;;;18.45;;
50225;SDS011;36113;50.742;6.432;2024-02-28T07:04:09;41.45;;;19.55;;
50225;SDS011;36113;50.742;6.432;2024-02-28T07:06:34;35.72;;;19.65;;
50225;SDS011;36113;50.742;6.432;2024-02-28T07:09:00;31.35;;;16.95;;
50225;SDS011;36113;50.742;6.432;2024-02-28T07:11:25;28.58;;;17.15;;
50225;SDS011;36113;50.742;6.432;2024-02-28T07:13:50;29.77;;;15.82;;
50225;SDS011;36113;50.742;6.432;2024-02-28T07:16:15;28.25;;;14.68;;
50225;SDS011;36113;50.742;6.432;2024-02-28T07:18:41;29.30;;;15.07;;
50225;SDS011;36113;50.742;6.432;2024-02-28T07:21:06;30.75;;;16.42;;
50225;SDS011;36113;50.742;6.432;2024-02-28T07:23:32;26.52;;;14.20;;
50225;SDS011;36113;50.742;6.432;2024-02-28T07:25:57;29.42;;;15.77;;
50225;SDS011;36113;50.742;6.432;2024-02-28T07:28:23;27.58;;;15.25;;
50225;SDS011;36113;50.742;6.432;2024-02-28T07:30:48;30.08;;;15.60;;
50225;SDS011;36113;50.742;6.432;2024-02-28T07:33:13;25.08;;;14.48;;
50225;SDS011;36113;50.742;6.432;2024-02-28T07:35:48;29.98;;;16.25;;
50225;SDS011;36113;50.742;6.432;2024-02-28T07:38:15;29.75;;;16.58;;
50225;SDS011;36113;50.742;6.432;2024-02-28T07:40:42;29.23;;;15.15;;
50225;SDS011;36113;50.742;6.432;2024-02-28T07:43:08;27.63;;;15.80;;
50225;SDS011;36113;50.742;6.432;2024-02-28T07:45:33;29.70;;;16.13;;
50225;SDS011;36113;50.742;6.432;2024-02-28T07:47:58;27.58;;;16.45;;
50225;SDS011;36113;50.742;6.432;2024-02-28T07:50:23;34.55;;;16.02;;
50225;SDS011;36113;50.742;6.432;2024-02-28T07:52:49;32.15;;;17.20;;
50225;SDS011;36113;50.742;6.432;2024-02-28T07:55:14;30.35;;;16.75;;
50225;SDS011;36113;50.742;6.432;2024-02-28T07:57:40;28.92;;;16.13;;
50225;SDS011;36113;50.742;6.432;2024-02-28T08:00:05;27.98;;;15.52;;
50225;SDS011;36113;50.742;6.432;2024-02-28T08:02:31;27.02;;;15.82;;
50225;SDS011;36113;50.742;6.432;2024-02-28T08:04:57;26.08;;;15.25;;
50225;SDS011;36113;50.742;6.432;2024-02-28T08:07:22;26.80;;;16.23;;
50225;SDS011;36113;50.742;6.432;2024-02-28T08:09:47;27.52;;;15.02;;
50225;SDS011;36113;50.742;6.432;2024-02-28T08:12:13;27.77;;;16.75;;
50225;SDS011;36113;50.742;6.432;2024-02-28T08:14:38;31.30;;;17.60;;
50225;SDS011;36113;50.742;6.432;2024-02-28T08:17:03;32.20;;;17.67;;
50225;SDS011;36113;50.742;6.432;2024-02-28T08:19:29;27.13;;;16.25;;
50225;SDS011;36113;50.742;6.432;2024-02-28T08:21:54;30.45;;;17.25;;
50225;SDS011;36113;50.742;6.432;2024-02-28T08:24:20;30.40;;;17.38;;
50225;SDS011;36113;50.742;6.432;2024-02-28T08:26:45;27.52;;;16.05;;
50225;SDS011;36113;50.742;6.432;2024-02-28T08:29:10;28.67;;;16.27;;
50225;SDS011;36113;50.742;6.432;2024-02-28T08:31:43;32.08;;;18.25;;
50225;SDS011;36113;50.742;6.432;2024-02-28T08:34:08;32.15;;;18.40;;
50225;SDS011;36113;50.742;6.432;2024-02-28T08:36:34;31.13;;;17.02;;
50225;SDS011;36113;50.742;6.432;2024-02-28T08:39:00;26.77;;;17.67;;
50225;SDS011;36113;50.742;6.432;2024-02-28T08:41:26;26.42;;;15.05;;
50225;SDS011;36113;50.742;6.432;2024-02-28T08:43:51;24.10;;;15.70;;
50225;SDS011;36113;50.742;6.432;2024-02-28T08:46:16;26.25;;;16.33;;
50225;SDS011;36113;50.742;6.432;2024-02-28T08:48:41;28.52;;;18.00;;
50225;SDS011;36113;50.742;6.432;2024-02-28T08:51:07;36.13;;;20.95;;
50225;SDS011;36113;50.742;6.432;2024-02-28T08:53:32;36.60;;;21.25;;
50225;SDS011;36113;50.742;6.432;2024-02-28T08:55:58;36.45;;;20.10;;
50225;SDS011;36113;50.742;6.432;2024-02-28T08:58:23;32.20;;;19.95;;
50225;SDS011;36113;50.742;6.432;2024-02-28T09:00:49;39.97;;;20.17;;
50225;SDS011;36113;50.742;6.432;2024-02-28T09:03:14;35.50;;;19.10;;
50225;SDS011;36113;50.742;6.432;2024-02-28T09:05:39;29.73;;;17.48;;
50225;SDS011;36113;50.742;6.432;2024-02-28T09:08:05;28.67;;;16.90;;
50225;SDS011;36113;50.742;6.432;2024-02-28T09:10:30;29.35;;;16.58;;
50225;SDS011;36113;50.742;6.432;2024-02-28T09:12:59;28.08;;;16.25;;
50225;SDS011;36113;50.742;6.432;2024-02-28T09:15:24;24.40;;;15.40;;
50225;SDS011;36113;50.742;6.432;2024-02-28T09:17:50;25.10;;;13.90;;
50225;SDS011;36113;50.742;6.432;2024-02-28T09:20:15;27.98;;;14.45;;
50225;SDS011;36113;50.742;6.432;2024-02-28T09:22:40;22.05;;;13.15;;
50225;SDS011;36113;50.742;6.432;2024-02-28T09:25:06;22.85;;;14.57;;
50225;SDS011;36113;50.742;6.432;2024-02-28T09:27:33;23.77;;;14.77;;
50225;SDS011;36113;50.742;6.432;2024-02-28T09:29:58;23.83;;;14.60;;
50225;SDS011;36113;50.742;6.432;2024-02-28T09:32:24;18.65;;;11.80;;
50225;SDS011;36113;50.742;6.432;2024-02-28T09:34:49;23.15;;;13.18;;
50225;SDS011;36113;50.742;6.432;2024-02-28T09:37:14;20.23;;;12.75;;
50225;SDS011;36113;50.742;6.432;2024-02-28T09:39:41;24.50;;;13.48;;
50225;SDS011;36113;50.742;6.432;2024-02-28T09:42:07;22.33;;;13.40;;
50225;SDS011;36113;50.742;6.432;2024-02-28T09:44:33;18.38;;;12.98;;
50225;SDS011;36113;50.742;6.432;2024-02-28T09:46:59;20.67;;;13.43;;
50225;SDS011;36113;50.742;6.432;2024-02-28T09:49:25;22.67;;;14.50;;
50225;SDS011;36113;50.742;6.432;2024-02-28T09:51:52;23.42;;;12.70;;
50225;SDS011;36113;50.742;6.432;2024-02-28T09:54:17;22.55;;;12.82;;
50225;SDS011;36113;50.742;6.432;2024-02-28T09:56:42;20.98;;;12.65;;
50225;SDS011;36113;50.742;6.432;2024-02-28T09:59:08;19.95;;;12.35;;
50225;SDS011;36113;50.742;6.432;2024-02-28T10:01:35;24.38;;;12.20;;
50225;SDS011;36113;50.742;6.432;2024-02-28T10:04:07;17.80;;;10.88;;
50225;SDS011;36113;50.742;6.432;2024-02-28T10:06:35;18.77;;;12.50;;
50225;SDS011;36113;50.742;6.432;2024-02-28T10:09:01;17.23;;;9.65;;
50225;SDS011;36113;50.742;6.432;2024-02-28T10:11:26;12.73;;;9.30;;
50225;SDS011;36113;50.742;6.432;2024-02-28T10:13:52;12.32;;;8.73;;
50225;SDS011;36113;50.742;6.432;2024-02-28T10:16:17;14.20;;;7.65;;
50225;SDS011;36113;50.742;6.432;2024-02-28T10:18:43;10.35;;;7.75;;
50225;SDS011;36113;50.742;6.432;2024-02-28T10:21:09;17.30;;;12.07;;
50225;SDS011;36113;50.742;6.432;2024-02-28T10:23:37;15.32;;;10.80;;
50225;SDS011;36113;50.742;6.432;2024-02-28T10:26:02;16.27;;;11.63;;
50225;SDS011;36113;50.742;6.432;2024-02-28T10:28:28;18.13;;;12.15;;
50225;SDS011;36113;50.742;6.432;2024-02-28T10:30:54;14.43;;;9.70;;
50225;SDS011;36113;50.742;6.432;2024-02-28T10:33:19;15.80;;;9.35;;
50225;SDS011;36113;50.742;6.432;2024-02-28T10:35:44;12.95;;;8.25;;
50225;SDS011;36113;50.742;6.432;2024-02-28T10:38:10;15.32;;;10.57;;
50225;SDS011;36113;50.742;6.432;2024-02-28T10:40:37;13.45;;;10.10;;
50225;SDS011;36113;50.742;6.432;2024-02-28T10:43:04;13.70;;;10.57;;
50225;SDS011;36113;50.742;6.432;2024-02-28T10:45:32;13.77;;;9.18;;
50225;SDS011;36113;50.742;6.432;2024-02-28T10:48:00;14.65;;;10.52;;
50225;SDS011;36113;50.742;6.432;2024-02-28T10:50:26;14.20;;;9.60;;
50225;SDS011;36113;50.742;6.432;2024-02-28T10:52:51;14.15;;;10.63;;
50225;SDS011;36113;50.742;6.432;2024-02-28T10:55:22;16.35;;;9.88;;
50225;SDS011;36113;50.742;6.432;2024-02-28T10:58:02;21.13;;;10.93;;
50225;SDS011;36113;50.742;6.432;2024-02-28T11:00:29;13.68;;;9.30;;
50225;SDS011;36113;50.742;6.432;2024-02-28T11:05:23;12.27;;;9.18;;
50225;SDS011;36113;50.742;6.432;2024-02-28T11:07:50;12.25;;;8.55;;
50225;SDS011;36113;50.742;6.432;2024-02-28T11:10:17;11.50;;;8.02;;
50225;SDS011;36113;50.742;6.432;2024-02-28T11:12:42;8.70;;;6.65;;
50225;SDS011;36113;50.742;6.432;2024-02-28T11:15:15;8.73;;;6.07;;
50225;SDS011;36113;50.742;6.432;2024-02-28T11:17:42;14.35;;;8.45;;
50225;SDS011;36113;50.742;6.432;2024-02-28T11:20:11;14.10;;;9.35;;
50225;SDS011;36113;50.742;6.432;2024-02-28T11:22:37;14.63;;;10.10;;
50225;SDS011;36113;50.742;6.432;2024-02-28T11:25:04;13.70;;;9.32;;
50225;SDS011;36113;50.742;6.432;2024-02-28T11:27:30;17.65;;;9.60;;
50225;SDS011;36113;50.742;6.432;2024-02-28T11:29:56;13.73;;;9.52;;
50225;SDS011;36113;50.742;6.432;2024-02-28T11:32:24;12.15;;;8.10;;
50225;SDS011;36113;50.742;6.432;2024-02-28T11:34:50;7.32;;;6.50;;
50225;SDS011;36113;50.742;6.432;2024-02-28T11:37:16;11.43;;;7.78;;
50225;SDS011;36113;50.742;6.432;2024-02-28T11:39:46;14.27;;;8.63;;
50225;SDS011;36113;50.742;6.432;2024-02-28T11:42:12;10.75;;;7.85;;
50225;SDS011;36113;50.742;6.432;2024-02-28T11:44:39;11.70;;;7.70;;
50225;SDS011;36113;50.742;6.432;2024-02-28T11:47:05;11.38;;;6.95;;
50225;SDS011;36113;50.742;6.432;2024-02-28T11:49:34;11.52;;;7.90;;
50225;SDS011;36113;50.742;6.432;2024-02-28T11:52:00;10.20;;;7.22;;
50225;SDS011;36113;50.742;6.432;2024-02-28T11:54:25;11.98;;;7.88;;
50225;SDS011;36113;50.742;6.432;2024-02-28T11:56:50;8.48;;;6.75;;
50225;SDS011;36113;50.742;6.432;2024-02-28T11:59:16;13.20;;;7.85;;
50225;SDS011;36113;50.742;6.432;2024-02-28T12:01:41;11.43;;;8.05;;
50225;SDS011;36113;50.742;6.432;2024-02-28T12:04:08;8.98;;;6.50;;
50225;SDS011;36113;50.742;6.432;2024-02-28T12:06:35;11.95;;;7.70;;
50225;SDS011;36113;50.742;6.432;2024-02-28T12:09:02;9.20;;;7.53;;
50225;SDS011;36113;50.742;6.432;2024-02-28T12:11:29;11.13;;;7.70;;
50225;SDS011;36113;50.742;6.432;2024-02-28T12:13:55;15.13;;;7.13;;
50225;SDS011;36113;50.742;6.432;2024-02-28T12:16:24;9.68;;;6.32;;
50225;SDS011;36113;50.742;6.432;2024-02-28T12:18:51;6.85;;;4.85;;
50225;SDS011;36113;50.742;6.432;2024-02-28T12:21:16;5.43;;;4.90;;
50225;SDS011;36113;50.742;6.432;2024-02-28T12:23:42;9.18;;;5.68;;
50225;SDS011;36113;50.742;6.432;2024-02-28T12:26:07;13.15;;;7.25;;
50225;SDS011;36113;50.742;6.432;2024-02-28T12:28:32;9.32;;;6.55;;
50225;SDS011;36113;50.742;6.432;2024-02-28T12:30:57;9.55;;;6.70;;
50225;SDS011;36113;50.742;6.432;2024-02-28T12:33:23;13.07;;;6.25;;
50225;SDS011;36113;50.742;6.432;2024-02-28T12:35:48;11.32;;;6.93;;
50225;SDS011;36113;50.742;6.432;2024-02-28T12:38:13;10.15;;;6.25;;
50225;SDS011;36113;50.742;6.432;2024-02-28T12:40:40;10.00;;;5.88;;
50225;SDS011;36113;50.742;6.432;2024-02-28T12:43:07;6.22;;;4.97;;
50225;SDS011;36113;50.742;6.432;2024-02-28T12:45:32;6.68;;;4.93;;
50225;SDS011;36113;50.742;6.432;2024-02-28T12:47:58;9.25;;;6.47;;
50225;SDS011;36113;50.742;6.432;2024-02-28T12:50:23;9.63;;;6.45;;
50225;SDS011;36113;50.742;6.432;2024-02-28T12:52:49;7.45;;;5.63;;
50225;SDS011;36113;50.742;6.432;2024-02-28T12:55:18;8.75;;;5.63;;
50225;SDS011;36113;50.742;6.432;2024-02-28T12:57:43;8.07;;;5.68;;
50225;SDS011;36113;50.742;6.432;2024-02-28T13:00:10;7.20;;;5.47;;
50225;SDS011;36113;50.742;6.432;2024-02-28T13:02:36;6.43;;;5.38;;
50225;SDS011;36113;50.742;6.432;2024-02-28T13:05:01;7.65;;;5.50;;
50225;SDS011;36113;50.742;6.432;2024-02-28T13:07:26;8.52;;;5.40;;
50225;SDS011;36113;50.742;6.432;2024-02-28T13:09:52;8.23;;;6.10;;
50225;SDS011;36113;50.742;6.432;2024-02-28T13:12:18;5.78;;;5.03;;
50225;SDS011;36113;50.742;6.432;2024-02-28T13:14:44;7.05;;;4.85;;
50225;SDS011;36113;50.742;6.432;2024-02-28T13:17:10;7.25;;;5.35;;
50225;SDS011;36113;50.742;6.432;2024-02-28T13:19:36;9.13;;;6.20;;
50225;SDS011;36113;50.742;6.432;2024-02-28T13:22:01;8.88;;;6.65;;
50225;SDS011;36113;50.742;6.432;2024-02-28T13:24:26;10.98;;;7.43;;
50225;SDS011;36113;50.742;6.432;2024-02-28T13:26:52;8.68;;;7.13;;
50225;SDS011;36113;50.742;6.432;2024-02-28T13:29:17;11.90;;;6.45;;
50225;SDS011;36113;50.742;6.432;2024-02-28T13:31:42;9.98;;;7.10;;
50225;SDS011;36113;50.742;6.432;2024-02-28T13:34:08;14.15;;;8.38;;
50225;SDS011;36113;50.742;6.432;2024-02-28T13:36:33;14.40;;;9.57;;
50225;SDS011;36113;50.742;6.432;2024-02-28T13:39:01;14.63;;;10.18;;
50225;SDS011;36113;50.742;6.432;2024-02-28T13:41:27;15.85;;;11.70;;
50225;SDS011;36113;50.742;6.432;2024-02-28T13:43:52;16.95;;;10.75;;
50225;SDS011;36113;50.742;6.432;2024-02-28T13:46:17;14.88;;;10.48;;
50225;SDS011;36113;50.742;6.432;2024-02-28T13:48:44;17.17;;;10.98;;
50225;SDS011;36113;50.742;6.432;2024-02-28T13:51:09;16.92;;;10.88;;
50225;SDS011;36113;50.742;6.432;2024-02-28T13:53:35;13.10;;;9.53;;
50225;SDS011;36113;50.742;6.432;2024-02-28T13:56:01;16.65;;;10.02;;
50225;SDS011;36113;50.742;6.432;2024-02-28T13:58:26;15.50;;;10.30;;
50225;SDS011;36113;50.742;6.432;2024-02-28T14:00:51;12.13;;;8.77;;
50225;SDS011;36113;50.742;6.432;2024-02-28T14:03:17;15.68;;;9.05;;
50225;SDS011;36113;50.742;6.432;2024-02-28T14:05:42;19.02;;;9.60;;
50225;SDS011;36113;50.742;6.432;2024-02-28T14:08:08;14.48;;;9.18;;
50225;SDS011;36113;50.742;6.432;2024-02-28T14:10:35;12.13;;;8.38;;
50225;SDS011;36113;50.742;6.432;2024-02-28T14:13:02;11.00;;;7.83;;
50225;SDS011;36113;50.742;6.432;2024-02-28T14:15:28;11.83;;;7.40;;
50225;SDS011;36113;50.742;6.432;2024-02-28T14:17:53;8.82;;;6.40;;
50225;SDS011;36113;50.742;6.432;2024-02-28T14:20:19;9.52;;;6.55;;